sensor_id;sensor_type;location;lat;lon;timestamp;temperature;humidity
7028;DHT22;3555;53.248;10.336;2023-05-23T00:02:03;17.80;99.90
7028;DHT22;3555;53.248;10.336;2023-05-23T00:04:32;17.80;99.90
7028;DHT22;3555;53.248;10.336;2023-05-23T00:07:00;17.80;99.90
7028;DHT22;3555;53.248;10.336;2023-05-23T00:09:27;17.80;99.90
7028;DHT22;3555;53.248;10.336;2023-05-23T00:11:54;17.90;99.90
7028;DHT22;3555;53.248;10.336;2023-05-23T00:14:21;17.90;99.90
7028;DHT22;3555;53.248;10.336;2023-05-23T00:16:49;17.90;99.90
7028;DHT22;3555;53.248;10.336;2023-05-23T00:19:16;17.80;99.90
7028;DHT22;3555;53.248;10.336;2023-05-23T00:21:45;17.70;99.90
7028;DHT22;3555;53.248;10.336;2023-05-23T00:24:14;17.60;99.90
7028;DHT22;3555;53.248;10.336;2023-05-23T00:26:43;17.60;99.90
7028;DHT22;3555;53.248;10.336;2023-05-23T00:29:10;17.60;99.90
7028;DHT22;3555;53.248;10.336;2023-05-23T00:31:40;17.50;99.90
7028;DHT22;3555;53.248;10.336;2023-05-23T00:34:08;17.50;99.90
7028;DHT22;3555;53.248;10.336;2023-05-23T00:36:35;17.50;99.90
7028;DHT22;3555;53.248;10.336;2023-05-23T00:39:03;17.50;99.90
7028;DHT22;3555;53.248;10.336;2023-05-23T00:41:30;17.60;99.90
7028;DHT22;3555;53.248;10.336;2023-05-23T00:43:57;17.60;99.90
7028;DHT22;3555;53.248;10.336;2023-05-23T00:46:25;17.70;99.90
7028;DHT22;3555;53.248;10.336;2023-05-23T00:48:52;17.70;99.90
7028;DHT22;3555;53.248;10.336;2023-05-23T00:51:21;17.70;99.90
7028;DHT22;3555;53.248;10.336;2023-05-23T00:53:48;17.80;99.90
7028;DHT22;3555;53.248;10.336;2023-05-23T00:56:15;17.80;99.90
7028;DHT22;3555;53.248;10.336;2023-05-23T00:58:42;17.90;99.90
7028;DHT22;3555;53.248;10.336;2023-05-23T01:01:09;17.90;99.90
7028;DHT22;3555;53.248;10.336;2023-05-23T01:03:36;17.90;99.90
7028;DHT22;3555;53.248;10.336;2023-05-23T01:06:03;18.00;99.90
7028;DHT22;3555;53.248;10.336;2023-05-23T01:08:31;18.10;99.90
7028;DHT22;3555;53.248;10.336;2023-05-23T01:11:02;18.10;99.90
7028;DHT22;3555;53.248;10.336;2023-05-23T01:13:38;18.10;99.90
7028;DHT22;3555;53.248;10.336;2023-05-23T01:16:09;18.00;99.90
7028;DHT22;3555;53.248;10.336;2023-05-23T01:18:39;18.00;99.90
7028;DHT22;3555;53.248;10.336;2023-05-23T01:21:11;18.00;99.90
7028;DHT22;3555;53.248;10.336;2023-05-23T01:24:02;17.90;99.90
7028;DHT22;3555;53.248;10.336;2023-05-23T01:26:45;17.90;99.90
7028;DHT22;3555;53.248;10.336;2023-05-23T01:29:23;17.80;99.90
7028;DHT22;3555;53.248;10.336;2023-05-23T01:31:52;17.90;99.90
7028;DHT22;3555;53.248;10.336;2023-05-23T01:34:20;17.80;99.90
7028;DHT22;3555;53.248;10.336;2023-05-23T01:36:52;17.80;99.90
7028;DHT22;3555;53.248;10.336;2023-05-23T01:39:20;17.80;99.90
7028;DHT22;3555;53.248;10.336;2023-05-23T01:41:47;17.70;99.90
7028;DHT22;3555;53.248;10.336;2023-05-23T01:44:15;17.70;99.90
7028;DHT22;3555;53.248;10.336;2023-05-23T01:46:44;17.70;99.90
7028;DHT22;3555;53.248;10.336;2023-05-23T01:49:13;17.60;99.90
7028;DHT22;3555;53.248;10.336;2023-05-23T01:51:41;17.60;99.90
7028;DHT22;3555;53.248;10.336;2023-05-23T01:54:08;17.60;99.90
7028;DHT22;3555;53.248;10.336;2023-05-23T01:56:35;17.70;99.90
7028;DHT22;3555;53.248;10.336;2023-05-23T01:59:02;17.80;99.90
7028;DHT22;3555;53.248;10.336;2023-05-23T02:01:29;17.80;99.90
7028;DHT22;3555;53.248;10.336;2023-05-23T02:03:58;17.80;99.90
7028;DHT22;3555;53.248;10.336;2023-05-23T02:06:25;17.80;99.90
7028;DHT22;3555;53.248;10.336;2023-05-23T02:08:51;17.80;99.90
7028;DHT22;3555;53.248;10.336;2023-05-23T02:11:18;17.80;99.90
7028;DHT22;3555;53.248;10.336;2023-05-23T02:13:47;17.70;99.90
7028;DHT22;3555;53.248;10.336;2023-05-23T02:16:13;17.60;99.90
7028;DHT22;3555;53.248;10.336;2023-05-23T02:18:41;17.60;99.90
7028;DHT22;3555;53.248;10.336;2023-05-23T02:21:12;17.60;99.90
7028;DHT22;3555;53.248;10.336;2023-05-23T02:23:39;17.40;99.90
7028;DHT22;3555;53.248;10.336;2023-05-23T02:26:05;17.50;99.90
7028;DHT22;3555;53.248;10.336;2023-05-23T02:28:32;17.50;99.90
7028;DHT22;3555;53.248;10.336;2023-05-23T02:30:59;17.60;99.90
7028;DHT22;3555;53.248;10.336;2023-05-23T02:33:26;17.60;99.90
7028;DHT22;3555;53.248;10.336;2023-05-23T02:35:53;17.80;99.90
7028;DHT22;3555;53.248;10.336;2023-05-23T02:38:22;17.50;99.90
7028;DHT22;3555;53.248;10.336;2023-05-23T02:40:48;17.40;99.90
7028;DHT22;3555;53.248;10.336;2023-05-23T02:43:16;17.40;99.90
7028;DHT22;3555;53.248;10.336;2023-05-23T02:45:43;17.30;99.90
7028;DHT22;3555;53.248;10.336;2023-05-23T02:48:10;17.30;99.90
7028;DHT22;3555;53.248;10.336;2023-05-23T02:50:37;17.40;99.90
7028;DHT22;3555;53.248;10.336;2023-05-23T02:53:04;17.40;99.90
7028;DHT22;3555;53.248;10.336;2023-05-23T02:55:33;17.50;99.90
7028;DHT22;3555;53.248;10.336;2023-05-23T02:57:59;17.40;99.90
7028;DHT22;3555;53.248;10.336;2023-05-23T03:00:30;17.40;99.90
7028;DHT22;3555;53.248;10.336;2023-05-23T03:02:58;17.30;99.90
7028;DHT22;3555;53.248;10.336;2023-05-23T03:05:25;17.20;99.90
7028;DHT22;3555;53.248;10.336;2023-05-23T03:07:51;17.10;99.90
7028;DHT22;3555;53.248;10.336;2023-05-23T03:10:19;16.90;99.90
7028;DHT22;3555;53.248;10.336;2023-05-23T03:12:47;16.90;99.90
7028;DHT22;3555;53.248;10.336;2023-05-23T03:15:14;16.80;99.90
7028;DHT22;3555;53.248;10.336;2023-05-23T03:17:41;16.80;99.90
7028;DHT22;3555;53.248;10.336;2023-05-23T03:20:09;16.80;99.90
7028;DHT22;3555;53.248;10.336;2023-05-23T03:22:36;16.80;99.90
7028;DHT22;3555;53.248;10.336;2023-05-23T03:25:04;16.70;99.90
7028;DHT22;3555;53.248;10.336;2023-05-23T03:27:31;16.90;99.90
7028;DHT22;3555;53.248;10.336;2023-05-23T03:29:59;16.70;99.90
7028;DHT22;3555;53.248;10.336;2023-05-23T03:32:26;16.80;99.90
7028;DHT22;3555;53.248;10.336;2023-05-23T03:34:53;16.80;99.90
7028;DHT22;3555;53.248;10.336;2023-05-23T03:37:20;16.70;99.90
7028;DHT22;3555;53.248;10.336;2023-05-23T03:39:47;16.70;99.90
7028;DHT22;3555;53.248;10.336;2023-05-23T03:42:14;16.60;99.90
7028;DHT22;3555;53.248;10.336;2023-05-23T03:44:41;16.60;99.90
7028;DHT22;3555;53.248;10.336;2023-05-23T03:47:09;16.60;99.90
7028;DHT22;3555;53.248;10.336;2023-05-23T03:49:36;16.40;99.90
7028;DHT22;3555;53.248;10.336;2023-05-23T03:52:03;16.40;99.90
7028;DHT22;3555;53.248;10.336;2023-05-23T03:54:30;16.30;99.90
7028;DHT22;3555;53.248;10.336;2023-05-23T03:56:57;16.30;99.90
7028;DHT22;3555;53.248;10.336;2023-05-23T03:59:24;16.30;99.90
7028;DHT22;3555;53.248;10.336;2023-05-23T04:01:51;16.30;99.90
7028;DHT22;3555;53.248;10.336;2023-05-23T04:04:19;16.40;99.90
7028;DHT22;3555;53.248;10.336;2023-05-23T04:06:46;16.40;99.90
7028;DHT22;3555;53.248;10.336;2023-05-23T04:09:13;16.50;99.90
7028;DHT22;3555;53.248;10.336;2023-05-23T04:11:40;16.60;99.90
7028;DHT22;3555;53.248;10.336;2023-05-23T04:14:07;16.70;99.90
7028;DHT22;3555;53.248;10.336;2023-05-23T04:16:35;16.70;99.90
7028;DHT22;3555;53.248;10.336;2023-05-23T04:19:06;16.70;99.90
7028;DHT22;3555;53.248;10.336;2023-05-23T04:21:34;16.70;99.90
7028;DHT22;3555;53.248;10.336;2023-05-23T04:24:01;16.70;99.90
7028;DHT22;3555;53.248;10.336;2023-05-23T04:26:28;16.70;99.90
7028;DHT22;3555;53.248;10.336;2023-05-23T04:28:55;16.70;99.90
7028;DHT22;3555;53.248;10.336;2023-05-23T04:31:23;16.60;99.90
7028;DHT22;3555;53.248;10.336;2023-05-23T04:33:50;16.60;99.90
7028;DHT22;3555;53.248;10.336;2023-05-23T04:36:17;16.60;99.90
7028;DHT22;3555;53.248;10.336;2023-05-23T04:38:45;16.60;99.90
7028;DHT22;3555;53.248;10.336;2023-05-23T04:41:12;16.60;99.90
7028;DHT22;3555;53.248;10.336;2023-05-23T04:43:40;16.60;99.90
7028;DHT22;3555;53.248;10.336;2023-05-23T04:46:08;16.50;99.90
7028;DHT22;3555;53.248;10.336;2023-05-23T04:48:35;16.50;99.90
7028;DHT22;3555;53.248;10.336;2023-05-23T04:51:03;16.50;99.90
7028;DHT22;3555;53.248;10.336;2023-05-23T04:53:33;16.40;99.90
7028;DHT22;3555;53.248;10.336;2023-05-23T04:56:02;16.40;99.90
7028;DHT22;3555;53.248;10.336;2023-05-23T04:58:29;16.40;99.90
7028;DHT22;3555;53.248;10.336;2023-05-23T05:00:56;16.50;99.90
7028;DHT22;3555;53.248;10.336;2023-05-23T05:03:23;16.40;99.90
7028;DHT22;3555;53.248;10.336;2023-05-23T05:05:50;16.30;99.90
7028;DHT22;3555;53.248;10.336;2023-05-23T05:08:17;16.40;99.90
7028;DHT22;3555;53.248;10.336;2023-05-23T05:10:45;16.30;99.90
7028;DHT22;3555;53.248;10.336;2023-05-23T05:13:13;16.20;99.90
7028;DHT22;3555;53.248;10.336;2023-05-23T05:15:40;16.20;99.90
7028;DHT22;3555;53.248;10.336;2023-05-23T05:18:07;16.20;99.90
7028;DHT22;3555;53.248;10.336;2023-05-23T05:20:34;16.10;99.90
7028;DHT22;3555;53.248;10.336;2023-05-23T05:23:01;16.00;99.90
7028;DHT22;3555;53.248;10.336;2023-05-23T05:25:27;16.00;99.90
7028;DHT22;3555;53.248;10.336;2023-05-23T05:27:56;16.10;99.90
7028;DHT22;3555;53.248;10.336;2023-05-23T05:30:25;16.10;99.90
7028;DHT22;3555;53.248;10.336;2023-05-23T05:32:52;16.10;99.90
7028;DHT22;3555;53.248;10.336;2023-05-23T05:35:19;16.10;99.90
7028;DHT22;3555;53.248;10.336;2023-05-23T05:37:46;16.10;99.90
7028;DHT22;3555;53.248;10.336;2023-05-23T05:40:13;16.00;99.90
7028;DHT22;3555;53.248;10.336;2023-05-23T05:42:39;16.00;99.90
7028;DHT22;3555;53.248;10.336;2023-05-23T05:45:07;16.00;99.90
7028;DHT22;3555;53.248;10.336;2023-05-23T05:47:35;16.00;99.90
7028;DHT22;3555;53.248;10.336;2023-05-23T05:50:03;16.00;99.90
7028;DHT22;3555;53.248;10.336;2023-05-23T05:52:31;16.20;99.90
7028;DHT22;3555;53.248;10.336;2023-05-23T05:54:59;16.10;99.90
7028;DHT22;3555;53.248;10.336;2023-05-23T05:57:26;16.10;99.90
7028;DHT22;3555;53.248;10.336;2023-05-23T05:59:52;16.10;99.90
7028;DHT22;3555;53.248;10.336;2023-05-23T06:02:19;16.20;99.90
7028;DHT22;3555;53.248;10.336;2023-05-23T06:04:48;16.20;99.90
7028;DHT22;3555;53.248;10.336;2023-05-23T06:07:15;16.10;99.90
7028;DHT22;3555;53.248;10.336;2023-05-23T06:09:42;16.10;99.90
7028;DHT22;3555;53.248;10.336;2023-05-23T06:12:09;16.10;99.90
7028;DHT22;3555;53.248;10.336;2023-05-23T06:14:36;16.10;99.90
7028;DHT22;3555;53.248;10.336;2023-05-23T06:17:03;16.10;99.90
7028;DHT22;3555;53.248;10.336;2023-05-23T06:19:30;16.20;99.90
7028;DHT22;3555;53.248;10.336;2023-05-23T06:21:58;16.30;99.90
7028;DHT22;3555;53.248;10.336;2023-05-23T06:24:25;16.20;99.90
7028;DHT22;3555;53.248;10.336;2023-05-23T06:26:52;16.30;99.90
7028;DHT22;3555;53.248;10.336;2023-05-23T06:29:19;16.20;99.90
7028;DHT22;3555;53.248;10.336;2023-05-23T06:31:46;16.30;99.90
7028;DHT22;3555;53.248;10.336;2023-05-23T06:34:13;16.40;99.90
7028;DHT22;3555;53.248;10.336;2023-05-23T06:36:40;16.40;99.90
7028;DHT22;3555;53.248;10.336;2023-05-23T06:39:08;16.50;99.90
7028;DHT22;3555;53.248;10.336;2023-05-23T06:41:35;16.50;99.90
7028;DHT22;3555;53.248;10.336;2023-05-23T06:44:02;16.50;99.90
7028;DHT22;3555;53.248;10.336;2023-05-23T06:46:29;16.60;99.90
7028;DHT22;3555;53.248;10.336;2023-05-23T06:48:56;16.70;99.90
7028;DHT22;3555;53.248;10.336;2023-05-23T06:51:23;16.60;99.90
7028;DHT22;3555;53.248;10.336;2023-05-23T06:53:50;16.50;99.90
7028;DHT22;3555;53.248;10.336;2023-05-23T06:56:18;16.50;99.90
7028;DHT22;3555;53.248;10.336;2023-05-23T06:58:45;16.60;99.90
7028;DHT22;3555;53.248;10.336;2023-05-23T07:01:12;16.60;99.90
7028;DHT22;3555;53.248;10.336;2023-05-23T07:03:39;16.50;99.90
7028;DHT22;3555;53.248;10.336;2023-05-23T07:06:07;16.60;99.90
7028;DHT22;3555;53.248;10.336;2023-05-23T07:08:34;16.60;99.90
7028;DHT22;3555;53.248;10.336;2023-05-23T07:11:01;16.60;99.90
7028;DHT22;3555;53.248;10.336;2023-05-23T07:13:30;16.60;99.90
7028;DHT22;3555;53.248;10.336;2023-05-23T07:15:57;16.50;99.90
7028;DHT22;3555;53.248;10.336;2023-05-23T07:18:24;16.60;99.90
7028;DHT22;3555;53.248;10.336;2023-05-23T07:20:51;16.50;99.90
7028;DHT22;3555;53.248;10.336;2023-05-23T07:23:18;16.60;99.90
7028;DHT22;3555;53.248;10.336;2023-05-23T07:25:45;16.50;99.90
7028;DHT22;3555;53.248;10.336;2023-05-23T07:28:12;16.50;99.90
7028;DHT22;3555;53.248;10.336;2023-05-23T07:30:40;16.50;99.90
7028;DHT22;3555;53.248;10.336;2023-05-23T07:33:07;16.50;99.90
7028;DHT22;3555;53.248;10.336;2023-05-23T07:35:34;16.50;99.90
7028;DHT22;3555;53.248;10.336;2023-05-23T07:38:01;16.60;99.90
7028;DHT22;3555;53.248;10.336;2023-05-23T07:40:29;16.60;99.90
7028;DHT22;3555;53.248;10.336;2023-05-23T07:42:56;16.60;99.90
7028;DHT22;3555;53.248;10.336;2023-05-23T07:45:24;16.60;99.90
7028;DHT22;3555;53.248;10.336;2023-05-23T07:47:52;16.40;99.90
7028;DHT22;3555;53.248;10.336;2023-05-23T07:50:19;16.30;99.90
7028;DHT22;3555;53.248;10.336;2023-05-23T07:52:46;16.40;99.90
7028;DHT22;3555;53.248;10.336;2023-05-23T07:55:15;16.30;99.90
7028;DHT22;3555;53.248;10.336;2023-05-23T07:57:42;16.20;99.90
7028;DHT22;3555;53.248;10.336;2023-05-23T08:00:10;16.30;99.90
7028;DHT22;3555;53.248;10.336;2023-05-23T08:02:37;16.30;99.90
7028;DHT22;3555;53.248;10.336;2023-05-23T08:05:07;16.30;99.90
7028;DHT22;3555;53.248;10.336;2023-05-23T08:07:34;16.30;99.90
7028;DHT22;3555;53.248;10.336;2023-05-23T08:10:01;16.30;99.90
7028;DHT22;3555;53.248;10.336;2023-05-23T08:12:28;16.20;99.90
7028;DHT22;3555;53.248;10.336;2023-05-23T08:14:54;16.20;99.90
7028;DHT22;3555;53.248;10.336;2023-05-23T08:17:22;16.10;99.90
7028;DHT22;3555;53.248;10.336;2023-05-23T08:19:49;15.90;99.90
7028;DHT22;3555;53.248;10.336;2023-05-23T08:22:17;15.90;99.90
7028;DHT22;3555;53.248;10.336;2023-05-23T08:24:44;15.80;99.90
7028;DHT22;3555;53.248;10.336;2023-05-23T08:27:11;15.70;99.90
7028;DHT22;3555;53.248;10.336;2023-05-23T08:29:38;15.70;99.90
7028;DHT22;3555;53.248;10.336;2023-05-23T08:32:05;15.60;99.90
7028;DHT22;3555;53.248;10.336;2023-05-23T08:34:32;15.60;99.90
7028;DHT22;3555;53.248;10.336;2023-05-23T08:36:59;15.60;99.90
7028;DHT22;3555;53.248;10.336;2023-05-23T08:39:28;15.60;99.90
7028;DHT22;3555;53.248;10.336;2023-05-23T08:41:55;15.50;99.90
7028;DHT22;3555;53.248;10.336;2023-05-23T08:44:22;15.50;99.90
7028;DHT22;3555;53.248;10.336;2023-05-23T08:46:52;15.50;99.90
7028;DHT22;3555;53.248;10.336;2023-05-23T08:49:21;16.10;99.90
7028;DHT22;3555;53.248;10.336;2023-05-23T08:51:50;15.60;99.90
7028;DHT22;3555;53.248;10.336;2023-05-23T08:54:17;15.70;99.90
7028;DHT22;3555;53.248;10.336;2023-05-23T08:56:48;15.80;99.90
7028;DHT22;3555;53.248;10.336;2023-05-23T08:59:16;16.50;99.90
7028;DHT22;3555;53.248;10.336;2023-05-23T09:01:44;15.90;99.90
7028;DHT22;3555;53.248;10.336;2023-05-23T09:04:12;16.00;99.90
7028;DHT22;3555;53.248;10.336;2023-05-23T09:06:39;16.00;99.90
7028;DHT22;3555;53.248;10.336;2023-05-23T09:09:06;15.90;99.90
7028;DHT22;3555;53.248;10.336;2023-05-23T09:11:33;15.80;99.90
7028;DHT22;3555;53.248;10.336;2023-05-23T09:14:02;15.60;99.90
7028;DHT22;3555;53.248;10.336;2023-05-23T09:16:33;15.40;99.90
7028;DHT22;3555;53.248;10.336;2023-05-23T09:19:09;15.30;99.90
7028;DHT22;3555;53.248;10.336;2023-05-23T09:21:36;15.30;99.90
7028;DHT22;3555;53.248;10.336;2023-05-23T09:24:04;15.30;99.90
7028;DHT22;3555;53.248;10.336;2023-05-23T09:26:31;15.30;99.90
7028;DHT22;3555;53.248;10.336;2023-05-23T09:28:58;15.40;99.90
7028;DHT22;3555;53.248;10.336;2023-05-23T09:31:27;15.40;99.90
7028;DHT22;3555;53.248;10.336;2023-05-23T09:33:54;15.50;99.90
7028;DHT22;3555;53.248;10.336;2023-05-23T09:36:21;15.60;99.90
7028;DHT22;3555;53.248;10.336;2023-05-23T09:38:48;15.70;99.90
7028;DHT22;3555;53.248;10.336;2023-05-23T09:41:19;15.70;99.90
7028;DHT22;3555;53.248;10.336;2023-05-23T09:43:49;15.80;99.90
7028;DHT22;3555;53.248;10.336;2023-05-23T09:46:18;15.90;99.90
7028;DHT22;3555;53.248;10.336;2023-05-23T09:48:47;15.90;99.90
7028;DHT22;3555;53.248;10.336;2023-05-23T09:51:18;15.90;99.90
7028;DHT22;3555;53.248;10.336;2023-05-23T09:53:46;15.90;99.90
7028;DHT22;3555;53.248;10.336;2023-05-23T09:56:13;15.70;99.90
7028;DHT22;3555;53.248;10.336;2023-05-23T09:58:43;15.60;99.90
7028;DHT22;3555;53.248;10.336;2023-05-23T10:01:11;15.50;99.90
7028;DHT22;3555;53.248;10.336;2023-05-23T10:03:43;15.40;99.90
7028;DHT22;3555;53.248;10.336;2023-05-23T10:06:16;15.30;99.90
7028;DHT22;3555;53.248;10.336;2023-05-23T10:08:53;15.30;99.90
7028;DHT22;3555;53.248;10.336;2023-05-23T10:14:17;15.20;99.90
7028;DHT22;3555;53.248;10.336;2023-05-23T10:16:54;15.10;99.90
7028;DHT22;3555;53.248;10.336;2023-05-23T10:19:24;14.80;99.90
7028;DHT22;3555;53.248;10.336;2023-05-23T10:21:57;14.50;99.90
7028;DHT22;3555;53.248;10.336;2023-05-23T10:24:25;14.30;99.90
7028;DHT22;3555;53.248;10.336;2023-05-23T10:26:53;14.30;99.90
7028;DHT22;3555;53.248;10.336;2023-05-23T10:29:21;14.10;99.90
7028;DHT22;3555;53.248;10.336;2023-05-23T10:31:49;14.10;99.90
7028;DHT22;3555;53.248;10.336;2023-05-23T10:34:23;14.10;99.90
7028;DHT22;3555;53.248;10.336;2023-05-23T10:37:02;14.10;99.90
7028;DHT22;3555;53.248;10.336;2023-05-23T10:39:45;14.10;99.90
7028;DHT22;3555;53.248;10.336;2023-05-23T10:42:19;14.10;99.90
7028;DHT22;3555;53.248;10.336;2023-05-23T10:44:49;14.00;99.90
7028;DHT22;3555;53.248;10.336;2023-05-23T10:47:25;14.00;99.90
7028;DHT22;3555;53.248;10.336;2023-05-23T10:49:54;14.00;99.90
7028;DHT22;3555;53.248;10.336;2023-05-23T10:52:23;14.10;99.90
7028;DHT22;3555;53.248;10.336;2023-05-23T10:54:53;14.10;99.90
7028;DHT22;3555;53.248;10.336;2023-05-23T10:57:21;14.00;99.90
7028;DHT22;3555;53.248;10.336;2023-05-23T10:59:49;13.90;99.90
7028;DHT22;3555;53.248;10.336;2023-05-23T11:02:24;13.70;99.90
7028;DHT22;3555;53.248;10.336;2023-05-23T11:05:19;13.70;99.90
7028;DHT22;3555;53.248;10.336;2023-05-23T11:08:05;13.60;99.90
7028;DHT22;3555;53.248;10.336;2023-05-23T11:10:50;13.50;99.90
7028;DHT22;3555;53.248;10.336;2023-05-23T11:13:18;13.50;99.90
7028;DHT22;3555;53.248;10.336;2023-05-23T11:15:46;13.40;99.90
7028;DHT22;3555;53.248;10.336;2023-05-23T11:18:20;13.40;99.90
7028;DHT22;3555;53.248;10.336;2023-05-23T11:20:49;13.50;99.90
7028;DHT22;3555;53.248;10.336;2023-05-23T11:23:19;13.50;99.90
7028;DHT22;3555;53.248;10.336;2023-05-23T11:25:48;13.40;99.90
7028;DHT22;3555;53.248;10.336;2023-05-23T11:28:16;13.30;99.90
7028;DHT22;3555;53.248;10.336;2023-05-23T11:30:43;13.30;99.90
7028;DHT22;3555;53.248;10.336;2023-05-23T11:33:16;13.30;99.90
7028;DHT22;3555;53.248;10.336;2023-05-23T11:35:46;13.40;99.90
7028;DHT22;3555;53.248;10.336;2023-05-23T11:38:14;13.40;99.90
7028;DHT22;3555;53.248;10.336;2023-05-23T11:40:44;13.40;99.90
7028;DHT22;3555;53.248;10.336;2023-05-23T11:43:14;13.40;99.90
7028;DHT22;3555;53.248;10.336;2023-05-23T11:45:41;13.40;99.90
7028;DHT22;3555;53.248;10.336;2023-05-23T11:48:12;13.50;99.90
7028;DHT22;3555;53.248;10.336;2023-05-23T11:50:43;13.50;99.90
7028;DHT22;3555;53.248;10.336;2023-05-23T11:53:11;13.50;99.90
7028;DHT22;3555;53.248;10.336;2023-05-23T11:55:39;13.50;99.90
7028;DHT22;3555;53.248;10.336;2023-05-23T11:58:09;13.50;99.90
7028;DHT22;3555;53.248;10.336;2023-05-23T12:00:42;13.60;99.90
7028;DHT22;3555;53.248;10.336;2023-05-23T12:03:09;13.60;99.90
7028;DHT22;3555;53.248;10.336;2023-05-23T12:05:37;13.60;99.90
7028;DHT22;3555;53.248;10.336;2023-05-23T12:08:04;13.60;99.90
7028;DHT22;3555;53.248;10.336;2023-05-23T12:10:31;13.60;99.90
7028;DHT22;3555;53.248;10.336;2023-05-23T12:12:58;13.70;99.90
7028;DHT22;3555;53.248;10.336;2023-05-23T12:15:26;13.80;99.90
7028;DHT22;3555;53.248;10.336;2023-05-23T12:17:56;14.00;99.90
7028;DHT22;3555;53.248;10.336;2023-05-23T12:20:24;14.20;99.90
7028;DHT22;3555;53.248;10.336;2023-05-23T12:22:53;14.40;99.90
7028;DHT22;3555;53.248;10.336;2023-05-23T12:25:20;14.50;99.90
7028;DHT22;3555;53.248;10.336;2023-05-23T12:27:47;14.60;99.90
7028;DHT22;3555;53.248;10.336;2023-05-23T12:30:15;14.70;99.90
7028;DHT22;3555;53.248;10.336;2023-05-23T12:32:44;14.90;99.90
7028;DHT22;3555;53.248;10.336;2023-05-23T12:35:13;15.00;99.90
7028;DHT22;3555;53.248;10.336;2023-05-23T12:37:43;15.20;99.90
7028;DHT22;3555;53.248;10.336;2023-05-23T12:40:12;15.30;1.00
7028;DHT22;3555;53.248;10.336;2023-05-23T12:42:52;15.30;1.00
7028;DHT22;3555;53.248;10.336;2023-05-23T12:45:20;15.50;1.00
7028;DHT22;3555;53.248;10.336;2023-05-23T12:47:48;15.60;99.90
7028;DHT22;3555;53.248;10.336;2023-05-23T12:50:15;15.80;1.00
7028;DHT22;3555;53.248;10.336;2023-05-23T12:52:42;15.90;1.00
7028;DHT22;3555;53.248;10.336;2023-05-23T12:55:09;16.10;1.00
7028;DHT22;3555;53.248;10.336;2023-05-23T12:57:36;16.10;99.90
7028;DHT22;3555;53.248;10.336;2023-05-23T13:00:04;16.10;99.90
7028;DHT22;3555;53.248;10.336;2023-05-23T13:02:31;16.20;1.00
7028;DHT22;3555;53.248;10.336;2023-05-23T13:04:59;16.20;1.00
7028;DHT22;3555;53.248;10.336;2023-05-23T13:07:26;16.20;99.90
7028;DHT22;3555;53.248;10.336;2023-05-23T13:09:53;16.30;1.00
7028;DHT22;3555;53.248;10.336;2023-05-23T13:12:20;16.40;1.00
7028;DHT22;3555;53.248;10.336;2023-05-23T13:14:48;16.40;99.90
7028;DHT22;3555;53.248;10.336;2023-05-23T13:17:16;16.20;1.00
7028;DHT22;3555;53.248;10.336;2023-05-23T13:19:43;16.20;1.00
7028;DHT22;3555;53.248;10.336;2023-05-23T13:22:11;16.30;1.00
7028;DHT22;3555;53.248;10.336;2023-05-23T13:24:39;16.40;1.00
7028;DHT22;3555;53.248;10.336;2023-05-23T13:27:06;16.60;1.00
7028;DHT22;3555;53.248;10.336;2023-05-23T13:29:33;16.50;99.90
7028;DHT22;3555;53.248;10.336;2023-05-23T13:32:00;16.60;99.90
7028;DHT22;3555;53.248;10.336;2023-05-23T13:34:27;16.60;99.90
7028;DHT22;3555;53.248;10.336;2023-05-23T13:36:54;16.70;1.00
7028;DHT22;3555;53.248;10.336;2023-05-23T13:39:22;16.90;99.90
7028;DHT22;3555;53.248;10.336;2023-05-23T13:41:49;16.80;73.50
7028;DHT22;3555;53.248;10.336;2023-05-23T13:44:16;16.90;99.90
7028;DHT22;3555;53.248;10.336;2023-05-23T13:46:44;16.80;99.90
7028;DHT22;3555;53.248;10.336;2023-05-23T13:49:11;16.80;1.00
7028;DHT22;3555;53.248;10.336;2023-05-23T13:51:37;16.70;99.90
7028;DHT22;3555;53.248;10.336;2023-05-23T13:54:04;16.50;1.00
7028;DHT22;3555;53.248;10.336;2023-05-23T13:56:33;16.40;99.90
7028;DHT22;3555;53.248;10.336;2023-05-23T13:59:01;16.40;99.90
7028;DHT22;3555;53.248;10.336;2023-05-23T14:01:27;16.40;8.70
7028;DHT22;3555;53.248;10.336;2023-05-23T14:03:55;16.40;1.00
7028;DHT22;3555;53.248;10.336;2023-05-23T14:06:21;16.30;1.00
7028;DHT22;3555;53.248;10.336;2023-05-23T14:08:48;16.40;99.90
7028;DHT22;3555;53.248;10.336;2023-05-23T14:11:15;16.60;99.90
7028;DHT22;3555;53.248;10.336;2023-05-23T14:13:44;16.80;99.90
7028;DHT22;3555;53.248;10.336;2023-05-23T14:16:10;17.00;95.30
7028;DHT22;3555;53.248;10.336;2023-05-23T14:18:37;17.10;1.00
7028;DHT22;3555;53.248;10.336;2023-05-23T14:21:04;17.10;13.20
7028;DHT22;3555;53.248;10.336;2023-05-23T14:23:31;17.30;1.00
7028;DHT22;3555;53.248;10.336;2023-05-23T14:25:58;17.30;1.00
7028;DHT22;3555;53.248;10.336;2023-05-23T14:28:25;17.10;1.00
7028;DHT22;3555;53.248;10.336;2023-05-23T14:30:53;16.90;1.00
7028;DHT22;3555;53.248;10.336;2023-05-23T14:33:21;16.90;1.00
7028;DHT22;3555;53.248;10.336;2023-05-23T14:35:48;16.80;1.00
7028;DHT22;3555;53.248;10.336;2023-05-23T14:38:15;16.60;1.00
7028;DHT22;3555;53.248;10.336;2023-05-23T14:40:42;16.70;1.00
7028;DHT22;3555;53.248;10.336;2023-05-23T14:43:09;16.60;1.00
7028;DHT22;3555;53.248;10.336;2023-05-23T14:45:37;16.60;1.00
7028;DHT22;3555;53.248;10.336;2023-05-23T14:48:06;16.60;1.00
7028;DHT22;3555;53.248;10.336;2023-05-23T14:50:32;16.50;1.00
7028;DHT22;3555;53.248;10.336;2023-05-23T14:52:59;16.50;1.00
7028;DHT22;3555;53.248;10.336;2023-05-23T14:55:26;16.60;1.00
7028;DHT22;3555;53.248;10.336;2023-05-23T14:57:53;16.30;1.00
7028;DHT22;3555;53.248;10.336;2023-05-23T15:00:21;16.20;1.00
7028;DHT22;3555;53.248;10.336;2023-05-23T15:02:48;16.20;1.00
7028;DHT22;3555;53.248;10.336;2023-05-23T15:05:17;16.10;1.00
7028;DHT22;3555;53.248;10.336;2023-05-23T15:07:45;16.10;1.00
7028;DHT22;3555;53.248;10.336;2023-05-23T15:10:11;15.90;1.00
7028;DHT22;3555;53.248;10.336;2023-05-23T15:12:39;16.00;1.00
7028;DHT22;3555;53.248;10.336;2023-05-23T15:15:07;16.10;1.00
7028;DHT22;3555;53.248;10.336;2023-05-23T15:17:34;16.00;1.00
7028;DHT22;3555;53.248;10.336;2023-05-23T15:20:01;15.80;1.00
7028;DHT22;3555;53.248;10.336;2023-05-23T15:22:29;15.80;1.00
7028;DHT22;3555;53.248;10.336;2023-05-23T15:24:57;15.80;1.00
7028;DHT22;3555;53.248;10.336;2023-05-23T15:27:24;15.80;1.00
7028;DHT22;3555;53.248;10.336;2023-05-23T15:29:51;15.90;1.00
7028;DHT22;3555;53.248;10.336;2023-05-23T15:32:18;15.90;1.00
7028;DHT22;3555;53.248;10.336;2023-05-23T15:34:45;15.90;1.00
7028;DHT22;3555;53.248;10.336;2023-05-23T15:37:12;15.90;1.00
7028;DHT22;3555;53.248;10.336;2023-05-23T15:39:40;15.90;1.00
7028;DHT22;3555;53.248;10.336;2023-05-23T15:42:07;15.90;1.00
7028;DHT22;3555;53.248;10.336;2023-05-23T15:44:34;16.00;1.00
7028;DHT22;3555;53.248;10.336;2023-05-23T15:47:01;16.00;1.00
7028;DHT22;3555;53.248;10.336;2023-05-23T15:49:28;15.90;1.00
7028;DHT22;3555;53.248;10.336;2023-05-23T15:51:55;15.70;1.00
7028;DHT22;3555;53.248;10.336;2023-05-23T15:54:22;15.80;1.00
7028;DHT22;3555;53.248;10.336;2023-05-23T15:56:50;15.80;1.00